sensor_id;sensor_type;location;lat;lon;timestamp;temperature;humidity
21001;DHT22;10658;50.920;12.238;2022-07-22T00:01:05;20.90;99.90
21001;DHT22;10658;50.920;12.238;2022-07-22T00:05:07;20.90;99.90
21001;DHT22;10658;50.920;12.238;2022-07-22T00:09:09;20.80;99.90
21001;DHT22;10658;50.920;12.238;2022-07-22T00:13:11;20.70;99.90
21001;DHT22;10658;50.920;12.238;2022-07-22T00:17:11;20.60;99.90
21001;DHT22;10658;50.920;12.238;2022-07-22T00:21:13;20.50;99.90
21001;DHT22;10658;50.920;12.238;2022-07-22T00:25:15;20.50;99.90
21001;DHT22;10658;50.920;12.238;2022-07-22T00:29:16;20.50;99.90
21001;DHT22;10658;50.920;12.238;2022-07-22T00:33:18;20.40;99.90
21001;DHT22;10658;50.920;12.238;2022-07-22T00:37:19;20.30;99.90
21001;DHT22;10658;50.920;12.238;2022-07-22T00:41:20;20.20;99.90
21001;DHT22;10658;50.920;12.238;2022-07-22T00:45:22;20.40;99.90
21001;DHT22;10658;50.920;12.238;2022-07-22T00:49:23;20.40;99.90
21001;DHT22;10658;50.920;12.238;2022-07-22T00:53:25;20.40;99.90
21001;DHT22;10658;50.920;12.238;2022-07-22T00:57:27;20.40;99.90
21001;DHT22;10658;50.920;12.238;2022-07-22T01:01:28;20.30;99.90
21001;DHT22;10658;50.920;12.238;2022-07-22T01:05:29;20.20;99.90
21001;DHT22;10658;50.920;12.238;2022-07-22T01:09:31;20.10;99.90
21001;DHT22;10658;50.920;12.238;2022-07-22T01:13:32;19.90;99.90
21001;DHT22;10658;50.920;12.238;2022-07-22T01:17:34;19.80;99.90
21001;DHT22;10658;50.920;12.238;2022-07-22T01:21:35;19.80;99.90
21001;DHT22;10658;50.920;12.238;2022-07-22T01:25:36;19.70;99.90
21001;DHT22;10658;50.920;12.238;2022-07-22T01:29:37;19.70;99.90
21001;DHT22;10658;50.920;12.238;2022-07-22T01:33:39;19.60;99.90
21001;DHT22;10658;50.920;12.238;2022-07-22T01:37:41;19.60;99.90
21001;DHT22;10658;50.920;12.238;2022-07-22T01:41:43;19.50;99.90
21001;DHT22;10658;50.920;12.238;2022-07-22T01:45:49;19.50;99.90
21001;DHT22;10658;50.920;12.238;2022-07-22T01:49:50;19.60;99.90
21001;DHT22;10658;50.920;12.238;2022-07-22T01:53:52;19.50;99.90
21001;DHT22;10658;50.920;12.238;2022-07-22T01:57:54;19.40;99.90
21001;DHT22;10658;50.920;12.238;2022-07-22T02:02:01;19.40;99.90
21001;DHT22;10658;50.920;12.238;2022-07-22T02:06:03;19.40;99.90
21001;DHT22;10658;50.920;12.238;2022-07-22T02:10:06;19.40;99.90
21001;DHT22;10658;50.920;12.238;2022-07-22T02:14:09;19.50;99.90
21001;DHT22;10658;50.920;12.238;2022-07-22T02:22:16;19.40;99.90
21001;DHT22;10658;50.920;12.238;2022-07-22T02:26:18;19.30;99.90
21001;DHT22;10658;50.920;12.238;2022-07-22T02:30:20;19.20;99.90
21001;DHT22;10658;50.920;12.238;2022-07-22T02:34:21;19.30;99.90
21001;DHT22;10658;50.920;12.238;2022-07-22T02:38:22;19.40;99.90
21001;DHT22;10658;50.920;12.238;2022-07-22T02:42:24;19.30;99.90
21001;DHT22;10658;50.920;12.238;2022-07-22T02:46:27;19.30;99.90
21001;DHT22;10658;50.920;12.238;2022-07-22T02:50:47;19.20;99.90
21001;DHT22;10658;50.920;12.238;2022-07-22T02:54:55;19.10;99.90
21001;DHT22;10658;50.920;12.238;2022-07-22T02:58:56;19.00;99.90
21001;DHT22;10658;50.920;12.238;2022-07-22T03:02:58;18.80;99.90
21001;DHT22;10658;50.920;12.238;2022-07-22T03:07:01;18.70;99.90
21001;DHT22;10658;50.920;12.238;2022-07-22T03:11:04;18.60;99.90
21001;DHT22;10658;50.920;12.238;2022-07-22T03:15:06;18.60;99.90
21001;DHT22;10658;50.920;12.238;2022-07-22T03:19:10;18.50;99.90
21001;DHT22;10658;50.920;12.238;2022-07-22T03:23:12;18.50;99.90
21001;DHT22;10658;50.920;12.238;2022-07-22T03:27:13;18.50;99.90
21001;DHT22;10658;50.920;12.238;2022-07-22T03:31:16;18.60;99.90
21001;DHT22;10658;50.920;12.238;2022-07-22T03:35:18;18.60;99.90
21001;DHT22;10658;50.920;12.238;2022-07-22T03:39:21;18.60;99.90
21001;DHT22;10658;50.920;12.238;2022-07-22T03:43:23;18.60;99.90
21001;DHT22;10658;50.920;12.238;2022-07-22T03:47:46;18.50;99.90
21001;DHT22;10658;50.920;12.238;2022-07-22T03:51:53;18.40;99.90
21001;DHT22;10658;50.920;12.238;2022-07-22T03:55:55;18.40;99.90
21001;DHT22;10658;50.920;12.238;2022-07-22T03:59:56;18.40;99.90
21001;DHT22;10658;50.920;12.238;2022-07-22T04:03:59;18.30;99.90
21001;DHT22;10658;50.920;12.238;2022-07-22T04:08:05;18.30;99.90
21001;DHT22;10658;50.920;12.238;2022-07-22T04:12:07;18.30;99.90
21001;DHT22;10658;50.920;12.238;2022-07-22T04:16:17;18.30;99.90
21001;DHT22;10658;50.920;12.238;2022-07-22T04:20:28;18.30;99.90
21001;DHT22;10658;50.920;12.238;2022-07-22T04:24:50;18.40;99.90
21001;DHT22;10658;50.920;12.238;2022-07-22T04:28:51;18.60;99.90
21001;DHT22;10658;50.920;12.238;2022-07-22T04:32:54;18.70;99.90
21001;DHT22;10658;50.920;12.238;2022-07-22T04:36:56;18.90;99.90
21001;DHT22;10658;50.920;12.238;2022-07-22T04:41:01;19.20;99.90
21001;DHT22;10658;50.920;12.238;2022-07-22T04:45:03;19.60;99.90
21001;DHT22;10658;50.920;12.238;2022-07-22T04:49:05;20.00;99.90
21001;DHT22;10658;50.920;12.238;2022-07-22T04:53:07;20.30;99.90
21001;DHT22;10658;50.920;12.238;2022-07-22T04:57:09;20.60;99.90
21001;DHT22;10658;50.920;12.238;2022-07-22T05:01:10;20.90;99.90
21001;DHT22;10658;50.920;12.238;2022-07-22T05:05:12;21.20;99.90
21001;DHT22;10658;50.920;12.238;2022-07-22T05:09:13;21.40;99.90
21001;DHT22;10658;50.920;12.238;2022-07-22T05:13:15;21.60;99.90
21001;DHT22;10658;50.920;12.238;2022-07-22T05:17:16;21.10;99.90
21001;DHT22;10658;50.920;12.238;2022-07-22T05:21:34;21.00;99.90
21001;DHT22;10658;50.920;12.238;2022-07-22T05:25:37;21.40;99.90
21001;DHT22;10658;50.920;12.238;2022-07-22T05:29:39;21.30;99.90
21001;DHT22;10658;50.920;12.238;2022-07-22T05:33:42;21.70;99.90
21001;DHT22;10658;50.920;12.238;2022-07-22T05:37:59;21.60;99.90
21001;DHT22;10658;50.920;12.238;2022-07-22T05:42:02;21.70;99.90
21001;DHT22;10658;50.920;12.238;2022-07-22T05:46:06;21.30;99.90
21001;DHT22;10658;50.920;12.238;2022-07-22T05:50:08;20.90;99.90
21001;DHT22;10658;50.920;12.238;2022-07-22T05:54:12;20.80;99.90
21001;DHT22;10658;50.920;12.238;2022-07-22T05:58:16;21.10;99.90
21001;DHT22;10658;50.920;12.238;2022-07-22T06:02:20;21.40;99.90
21001;DHT22;10658;50.920;12.238;2022-07-22T06:06:24;21.80;99.90
21001;DHT22;10658;50.920;12.238;2022-07-22T06:10:25;21.70;99.90
21001;DHT22;10658;50.920;12.238;2022-07-22T06:14:28;21.60;99.90
21001;DHT22;10658;50.920;12.238;2022-07-22T06:18:31;22.30;99.90
21001;DHT22;10658;50.920;12.238;2022-07-22T06:22:32;22.40;99.90
21001;DHT22;10658;50.920;12.238;2022-07-22T06:26:36;22.20;99.90
21001;DHT22;10658;50.920;12.238;2022-07-22T06:30:39;22.40;99.90
21001;DHT22;10658;50.920;12.238;2022-07-22T06:34:40;22.50;99.90
21001;DHT22;10658;50.920;12.238;2022-07-22T06:38:42;22.30;99.90
21001;DHT22;10658;50.920;12.238;2022-07-22T06:43:16;22.70;99.90
21001;DHT22;10658;50.920;12.238;2022-07-22T06:47:36;22.70;99.90
21001;DHT22;10658;50.920;12.238;2022-07-22T06:51:39;22.70;99.90
21001;DHT22;10658;50.920;12.238;2022-07-22T06:55:40;23.10;99.90
21001;DHT22;10658;50.920;12.238;2022-07-22T06:59:44;22.70;99.90
21001;DHT22;10658;50.920;12.238;2022-07-22T07:03:46;23.10;99.90
21001;DHT22;10658;50.920;12.238;2022-07-22T07:07:48;23.30;99.90
21001;DHT22;10658;50.920;12.238;2022-07-22T07:11:51;23.60;99.90
21001;DHT22;10658;50.920;12.238;2022-07-22T07:16:12;23.50;99.90
21001;DHT22;10658;50.920;12.238;2022-07-22T07:20:14;23.90;99.90
21001;DHT22;10658;50.920;12.238;2022-07-22T07:24:16;24.20;99.90
21001;DHT22;10658;50.920;12.238;2022-07-22T07:28:18;23.60;99.90
21001;DHT22;10658;50.920;12.238;2022-07-22T07:32:26;23.90;99.90
21001;DHT22;10658;50.920;12.238;2022-07-22T07:36:29;24.20;99.90
21001;DHT22;10658;50.920;12.238;2022-07-22T07:40:32;24.70;99.90
21001;DHT22;10658;50.920;12.238;2022-07-22T07:44:36;24.60;99.90
21001;DHT22;10658;50.920;12.238;2022-07-22T07:48:42;24.80;99.90
21001;DHT22;10658;50.920;12.238;2022-07-22T07:52:44;24.80;99.90
21001;DHT22;10658;50.920;12.238;2022-07-22T07:56:50;25.50;99.90
21001;DHT22;10658;50.920;12.238;2022-07-22T08:00:51;25.40;99.90
21001;DHT22;10658;50.920;12.238;2022-07-22T08:04:53;25.30;99.90
21001;DHT22;10658;50.920;12.238;2022-07-22T08:08:58;25.40;99.90
21001;DHT22;10658;50.920;12.238;2022-07-22T08:13:11;26.30;99.90
21001;DHT22;10658;50.920;12.238;2022-07-22T08:17:17;26.30;99.90
21001;DHT22;10658;50.920;12.238;2022-07-22T08:21:19;25.40;99.90
21001;DHT22;10658;50.920;12.238;2022-07-22T08:25:46;25.60;99.90
21001;DHT22;10658;50.920;12.238;2022-07-22T08:29:48;26.70;99.90
21001;DHT22;10658;50.920;12.238;2022-07-22T08:33:49;27.00;99.90
21001;DHT22;10658;50.920;12.238;2022-07-22T08:37:51;26.00;99.90
21001;DHT22;10658;50.920;12.238;2022-07-22T08:41:56;24.80;99.90
21001;DHT22;10658;50.920;12.238;2022-07-22T08:45:59;24.70;99.90
21001;DHT22;10658;50.920;12.238;2022-07-22T08:50:05;24.20;99.90
21001;DHT22;10658;50.920;12.238;2022-07-22T08:54:27;25.60;99.90
21001;DHT22;10658;50.920;12.238;2022-07-22T08:58:30;25.70;99.90
21001;DHT22;10658;50.920;12.238;2022-07-22T09:02:38;25.00;99.90
21001;DHT22;10658;50.920;12.238;2022-07-22T09:06:48;25.50;99.90
21001;DHT22;10658;50.920;12.238;2022-07-22T09:10:50;26.40;99.90
21001;DHT22;10658;50.920;12.238;2022-07-22T09:15:04;27.40;99.90
21001;DHT22;10658;50.920;12.238;2022-07-22T09:19:32;26.90;99.90
21001;DHT22;10658;50.920;12.238;2022-07-22T09:24:04;27.30;99.90
21001;DHT22;10658;50.920;12.238;2022-07-22T09:32:40;27.70;99.90
21001;DHT22;10658;50.920;12.238;2022-07-22T09:37:18;28.30;99.90
21001;DHT22;10658;50.920;12.238;2022-07-22T09:41:22;28.00;99.90
21001;DHT22;10658;50.920;12.238;2022-07-22T09:45:27;27.20;99.90
21001;DHT22;10658;50.920;12.238;2022-07-22T09:49:33;26.50;99.90
21001;DHT22;10658;50.920;12.238;2022-07-22T09:53:55;26.20;99.90
21001;DHT22;10658;50.920;12.238;2022-07-22T09:58:01;26.70;99.90
21001;DHT22;10658;50.920;12.238;2022-07-22T10:02:06;27.00;99.90
21001;DHT22;10658;50.920;12.238;2022-07-22T10:06:11;27.90;99.90
21001;DHT22;10658;50.920;12.238;2022-07-22T10:10:17;29.10;99.90
21001;DHT22;10658;50.920;12.238;2022-07-22T10:14:20;30.40;99.90
21001;DHT22;10658;50.920;12.238;2022-07-22T10:18:26;31.20;99.90
21001;DHT22;10658;50.920;12.238;2022-07-22T10:26:57;31.60;99.90
21001;DHT22;10658;50.920;12.238;2022-07-22T10:31:24;29.80;99.90
21001;DHT22;10658;50.920;12.238;2022-07-22T10:35:29;29.20;99.90
21001;DHT22;10658;50.920;12.238;2022-07-22T10:40:08;29.40;99.90
21001;DHT22;10658;50.920;12.238;2022-07-22T10:44:11;30.40;99.90
21001;DHT22;10658;50.920;12.238;2022-07-22T10:48:19;31.10;99.90
21001;DHT22;10658;50.920;12.238;2022-07-22T10:52:34;30.80;99.90
21001;DHT22;10658;50.920;12.238;2022-07-22T10:56:37;30.80;99.90
21001;DHT22;10658;50.920;12.238;2022-07-22T11:00:40;29.80;99.90
21001;DHT22;10658;50.920;12.238;2022-07-22T11:04:43;29.60;99.90
21001;DHT22;10658;50.920;12.238;2022-07-22T11:08:47;30.10;99.90
21001;DHT22;10658;50.920;12.238;2022-07-22T11:12:49;30.60;99.90
21001;DHT22;10658;50.920;12.238;2022-07-22T11:16:50;31.40;99.90
21001;DHT22;10658;50.920;12.238;2022-07-22T11:20:55;32.50;99.90
21001;DHT22;10658;50.920;12.238;2022-07-22T11:25:00;33.20;99.90
21001;DHT22;10658;50.920;12.238;2022-07-22T11:33:20;31.70;99.90
21001;DHT22;10658;50.920;12.238;2022-07-22T11:37:23;31.20;99.90
21001;DHT22;10658;50.920;12.238;2022-07-22T11:41:28;30.70;99.90
21001;DHT22;10658;50.920;12.238;2022-07-22T11:45:30;31.90;99.90
21001;DHT22;10658;50.920;12.238;2022-07-22T11:49:34;31.60;99.90
21001;DHT22;10658;50.920;12.238;2022-07-22T11:53:41;31.30;99.90
21001;DHT22;10658;50.920;12.238;2022-07-22T11:57:47;30.50;99.90
21001;DHT22;10658;50.920;12.238;2022-07-22T12:01:50;30.20;99.90
21001;DHT22;10658;50.920;12.238;2022-07-22T12:05:52;30.00;99.90
21001;DHT22;10658;50.920;12.238;2022-07-22T12:09:54;30.20;99.90
21001;DHT22;10658;50.920;12.238;2022-07-22T12:14:08;30.30;99.90
21001;DHT22;10658;50.920;12.238;2022-07-22T12:18:21;30.90;99.90
21001;DHT22;10658;50.920;12.238;2022-07-22T12:22:23;30.60;99.90
21001;DHT22;10658;50.920;12.238;2022-07-22T12:30:46;30.80;99.90
21001;DHT22;10658;50.920;12.238;2022-07-22T12:35:03;31.00;99.90
21001;DHT22;10658;50.920;12.238;2022-07-22T12:39:17;31.40;99.90
21001;DHT22;10658;50.920;12.238;2022-07-22T12:43:30;31.00;99.90
21001;DHT22;10658;50.920;12.238;2022-07-22T12:47:48;30.20;99.90
21001;DHT22;10658;50.920;12.238;2022-07-22T12:52:12;30.10;99.90
21001;DHT22;10658;50.920;12.238;2022-07-22T12:56:14;31.00;99.90
21001;DHT22;10658;50.920;12.238;2022-07-22T13:00:20;31.30;99.90
21001;DHT22;10658;50.920;12.238;2022-07-22T13:04:23;31.10;99.90
21001;DHT22;10658;50.920;12.238;2022-07-22T13:08:26;31.70;99.90
21001;DHT22;10658;50.920;12.238;2022-07-22T13:12:28;32.10;99.90
21001;DHT22;10658;50.920;12.238;2022-07-22T13:16:32;32.10;99.90
21001;DHT22;10658;50.920;12.238;2022-07-22T13:20:40;32.20;99.90
21001;DHT22;10658;50.920;12.238;2022-07-22T13:24:43;32.30;99.90
21001;DHT22;10658;50.920;12.238;2022-07-22T13:28:44;32.60;99.90
21001;DHT22;10658;50.920;12.238;2022-07-22T13:32:45;32.80;99.90
21001;DHT22;10658;50.920;12.238;2022-07-22T13:36:48;33.00;99.90
21001;DHT22;10658;50.920;12.238;2022-07-22T13:40:52;32.50;99.90
21001;DHT22;10658;50.920;12.238;2022-07-22T13:44:54;33.00;99.90
21001;DHT22;10658;50.920;12.238;2022-07-22T13:48:56;33.30;99.90
21001;DHT22;10658;50.920;12.238;2022-07-22T13:52:58;33.50;99.90
21001;DHT22;10658;50.920;12.238;2022-07-22T13:57:01;32.60;99.90
21001;DHT22;10658;50.920;12.238;2022-07-22T14:01:06;32.70;99.90
21001;DHT22;10658;50.920;12.238;2022-07-22T14:05:09;31.90;99.90
21001;DHT22;10658;50.920;12.238;2022-07-22T14:09:10;32.00;99.90
21001;DHT22;10658;50.920;12.238;2022-07-22T14:13:13;31.70;99.90
21001;DHT22;10658;50.920;12.238;2022-07-22T14:17:14;32.00;99.90
21001;DHT22;10658;50.920;12.238;2022-07-22T14:21:16;32.80;99.90
21001;DHT22;10658;50.920;12.238;2022-07-22T14:25:18;33.50;99.90
21001;DHT22;10658;50.920;12.238;2022-07-22T14:29:27;34.00;99.90
21001;DHT22;10658;50.920;12.238;2022-07-22T14:33:28;34.20;99.90
21001;DHT22;10658;50.920;12.238;2022-07-22T14:37:29;34.20;99.90
21001;DHT22;10658;50.920;12.238;2022-07-22T14:41:30;34.20;99.90
21001;DHT22;10658;50.920;12.238;2022-07-22T14:45:32;34.10;99.90
21001;DHT22;10658;50.920;12.238;2022-07-22T14:49:33;33.00;99.90
21001;DHT22;10658;50.920;12.238;2022-07-22T14:53:36;32.60;99.90
21001;DHT22;10658;50.920;12.238;2022-07-22T14:57:39;32.60;99.90
21001;DHT22;10658;50.920;12.238;2022-07-22T15:01:41;32.20;99.90
21001;DHT22;10658;50.920;12.238;2022-07-22T15:05:43;32.10;99.90
21001;DHT22;10658;50.920;12.238;2022-07-22T15:09:45;32.00;99.90
21001;DHT22;10658;50.920;12.238;2022-07-22T15:13:47;31.80;99.90
21001;DHT22;10658;50.920;12.238;2022-07-22T15:17:48;31.80;99.90
21001;DHT22;10658;50.920;12.238;2022-07-22T15:21:50;31.80;99.90
21001;DHT22;10658;50.920;12.238;2022-07-22T15:25:53;31.60;99.90
21001;DHT22;10658;50.920;12.238;2022-07-22T15:29:55;31.50;99.90
21001;DHT22;10658;50.920;12.238;2022-07-22T15:33:58;31.50;99.90
21001;DHT22;10658;50.920;12.238;2022-07-22T15:37:59;32.00;99.90
21001;DHT22;10658;50.920;12.238;2022-07-22T15:42:00;32.00;99.90
21001;DHT22;10658;50.920;12.238;2022-07-22T15:46:03;31.50;99.90
21001;DHT22;10658;50.920;12.238;2022-07-22T15:50:05;31.40;99.90
21001;DHT22;10658;50.920;12.238;2022-07-22T15:54:07;31.60;99.90
21001;DHT22;10658;50.920;12.238;2022-07-22T15:58:08;31.70;99.90
21001;DHT22;10658;50.920;12.238;2022-07-22T16:02:28;32.00;99.90
21001;DHT22;10658;50.920;12.238;2022-07-22T16:06:29;31.90;99.90
21001;DHT22;10658;50.920;12.238;2022-07-22T16:10:32;32.00;99.90
21001;DHT22;10658;50.920;12.238;2022-07-22T16:14:34;32.10;99.90
21001;DHT22;10658;50.920;12.238;2022-07-22T16:18:35;31.80;99.90
21001;DHT22;10658;50.920;12.238;2022-07-22T16:22:37;31.10;99.90
21001;DHT22;10658;50.920;12.238;2022-07-22T16:26:38;30.30;99.90
21001;DHT22;10658;50.920;12.238;2022-07-22T16:30:40;29.80;99.90
21001;DHT22;10658;50.920;12.238;2022-07-22T16:34:42;29.60;99.90
21001;DHT22;10658;50.920;12.238;2022-07-22T16:38:43;29.50;99.90
21001;DHT22;10658;50.920;12.238;2022-07-22T16:42:45;29.60;99.90
21001;DHT22;10658;50.920;12.238;2022-07-22T16:46:46;29.60;99.90
21001;DHT22;10658;50.920;12.238;2022-07-22T16:50:47;29.60;99.90
21001;DHT22;10658;50.920;12.238;2022-07-22T16:54:50;29.20;99.90
21001;DHT22;10658;50.920;12.238;2022-07-22T16:58:52;28.80;99.90
21001;DHT22;10658;50.920;12.238;2022-07-22T17:02:53;28.50;99.90
21001;DHT22;10658;50.920;12.238;2022-07-22T17:06:56;28.20;99.90
21001;DHT22;10658;50.920;12.238;2022-07-22T17:10:58;27.90;99.90
21001;DHT22;10658;50.920;12.238;2022-07-22T17:15:00;27.70;99.90
21001;DHT22;10658;50.920;12.238;2022-07-22T17:19:03;27.50;99.90
21001;DHT22;10658;50.920;12.238;2022-07-22T17:23:04;27.20;99.90
21001;DHT22;10658;50.920;12.238;2022-07-22T17:27:05;27.10;99.90
21001;DHT22;10658;50.920;12.238;2022-07-22T17:31:07;26.90;99.90
21001;DHT22;10658;50.920;12.238;2022-07-22T17:35:09;26.80;99.90
21001;DHT22;10658;50.920;12.238;2022-07-22T17:39:11;26.80;99.90
21001;DHT22;10658;50.920;12.238;2022-07-22T17:43:14;26.80;99.90
21001;DHT22;10658;50.920;12.238;2022-07-22T17:47:16;26.70;99.90
21001;DHT22;10658;50.920;12.238;2022-07-22T17:51:20;26.60;99.90
21001;DHT22;10658;50.920;12.238;2022-07-22T17:55:21;26.50;99.90
21001;DHT22;10658;50.920;12.238;2022-07-22T17:59:22;26.40;99.90
21001;DHT22;10658;50.920;12.238;2022-07-22T18:03:24;26.30;99.90
21001;DHT22;10658;50.920;12.238;2022-07-22T18:07:25;26.30;99.90
21001;DHT22;10658;50.920;12.238;2022-07-22T18:11:27;26.20;99.90
21001;DHT22;10658;50.920;12.238;2022-07-22T18:15:28;26.10;99.90
21001;DHT22;10658;50.920;12.238;2022-07-22T18:19:30;25.90;99.90
21001;DHT22;10658;50.920;12.238;2022-07-22T18:23:31;25.80;99.90
21001;DHT22;10658;50.920;12.238;2022-07-22T18:27:33;25.60;99.90
21001;DHT22;10658;50.920;12.238;2022-07-22T18:31:34;25.50;99.90
21001;DHT22;10658;50.920;12.238;2022-07-22T18:35:36;25.30;99.90
21001;DHT22;10658;50.920;12.238;2022-07-22T18:39:38;25.10;99.90
21001;DHT22;10658;50.920;12.238;2022-07-22T18:43:39;25.00;99.90
21001;DHT22;10658;50.920;12.238;2022-07-22T18:47:40;24.80;99.90
21001;DHT22;10658;50.920;12.238;2022-07-22T18:51:42;24.60;99.90
21001;DHT22;10658;50.920;12.238;2022-07-22T18:55:44;24.50;99.90
21001;DHT22;10658;50.920;12.238;2022-07-22T18:59:45;24.40;99.90
21001;DHT22;10658;50.920;12.238;2022-07-22T19:03:47;24.20;99.90
21001;DHT22;10658;50.920;12.238;2022-07-22T19:07:48;24.00;99.90
21001;DHT22;10658;50.920;12.238;2022-07-22T19:11:52;23.80;99.90
21001;DHT22;10658;50.920;12.238;2022-07-22T19:15:53;23.60;99.90
21001;DHT22;10658;50.920;12.238;2022-07-22T19:19:56;23.50;99.90
21001;DHT22;10658;50.920;12.238;2022-07-22T19:23:57;23.40;99.90
21001;DHT22;10658;50.920;12.238;2022-07-22T19:27:58;23.20;99.90
21001;DHT22;10658;50.920;12.238;2022-07-22T19:31:59;23.00;99.90
21001;DHT22;10658;50.920;12.238;2022-07-22T19:36:01;22.90;99.90
21001;DHT22;10658;50.920;12.238;2022-07-22T19:40:02;22.70;99.90
21001;DHT22;10658;50.920;12.238;2022-07-22T19:44:03;22.60;99.90
21001;DHT22;10658;50.920;12.238;2022-07-22T19:48:05;22.60;99.90
21001;DHT22;10658;50.920;12.238;2022-07-22T19:52:07;22.50;99.90
21001;DHT22;10658;50.920;12.238;2022-07-22T19:56:09;22.40;99.90
21001;DHT22;10658;50.920;12.238;2022-07-22T20:00:10;22.20;99.90
21001;DHT22;10658;50.920;12.238;2022-07-22T20:04:15;22.10;99.90
21001;DHT22;10658;50.920;12.238;2022-07-22T20:08:16;22.00;99.90
21001;DHT22;10658;50.920;12.238;2022-07-22T20:12:19;22.00;99.90
21001;DHT22;10658;50.920;12.238;2022-07-22T20:16:20;22.00;99.90
21001;DHT22;10658;50.920;12.238;2022-07-22T20:20:22;21.80;99.90
21001;DHT22;10658;50.920;12.238;2022-07-22T20:24:24;21.80;99.90
21001;DHT22;10658;50.920;12.238;2022-07-22T20:28:26;21.60;99.90
21001;DHT22;10658;50.920;12.238;2022-07-22T20:32:27;21.50;99.90
21001;DHT22;10658;50.920;12.238;2022-07-22T20:36:29;21.40;99.90
21001;DHT22;10658;50.920;12.238;2022-07-22T20:40:30;21.30;99.90
21001;DHT22;10658;50.920;12.238;2022-07-22T20:44:32;21.30;99.90
21001;DHT22;10658;50.920;12.238;2022-07-22T20:48:33;21.10;99.90
21001;DHT22;10658;50.920;12.238;2022-07-22T20:52:35;21.00;99.90
21001;DHT22;10658;50.920;12.238;2022-07-22T20:56:38;21.00;99.90
21001;DHT22;10658;50.920;12.238;2022-07-22T21:00:39;21.00;99.90
21001;DHT22;10658;50.920;12.238;2022-07-22T21:04:40;20.90;99.90
21001;DHT22;10658;50.920;12.238;2022-07-22T21:08:41;20.80;99.90
21001;DHT22;10658;50.920;12.238;2022-07-22T21:12:43;20.70;99.90
21001;DHT22;10658;50.920;12.238;2022-07-22T21:16:44;20.60;99.90
21001;DHT22;10658;50.920;12.238;2022-07-22T21:20:45;20.50;99.90
21001;DHT22;10658;50.920;12.238;2022-07-22T21:24:47;20.60;99.90
21001;DHT22;10658;50.920;12.238;2022-07-22T21:28:48;20.70;99.90
21001;DHT22;10658;50.920;12.238;2022-07-22T21:32:49;20.60;99.90
21001;DHT22;10658;50.920;12.238;2022-07-22T21:36:53;20.70;99.90
21001;DHT22;10658;50.920;12.238;2022-07-22T21:40:54;20.90;99.90
21001;DHT22;10658;50.920;12.238;2022-07-22T21:44:56;20.90;99.90
21001;DHT22;10658;50.920;12.238;2022-07-22T21:48:57;20.90;99.90
21001;DHT22;10658;50.920;12.238;2022-07-22T21:52:58;21.00;99.90
21001;DHT22;10658;50.920;12.238;2022-07-22T21:57:03;20.60;99.90
21001;DHT22;10658;50.920;12.238;2022-07-22T22:01:06;20.50;99.90
21001;DHT22;10658;50.920;12.238;2022-07-22T22:05:08;20.70;99.90
21001;DHT22;10658;50.920;12.238;2022-07-22T22:09:12;20.70;99.90
21001;DHT22;10658;50.920;12.238;2022-07-22T22:13:16;20.60;99.90
21001;DHT22;10658;50.920;12.238;2022-07-22T22:17:17;20.40;99.90
21001;DHT22;10658;50.920;12.238;2022-07-22T22:21:19;20.30;99.90
21001;DHT22;10658;50.920;12.238;2022-07-22T22:25:20;20.30;99.90
21001;DHT22;10658;50.920;12.238;2022-07-22T22:29:22;20.30;99.90
21001;DHT22;10658;50.920;12.238;2022-07-22T22:33:22;20.30;99.90
21001;DHT22;10658;50.920;12.238;2022-07-22T22:37:25;20.40;99.90
21001;DHT22;10658;50.920;12.238;2022-07-22T22:41:27;20.40;99.90
21001;DHT22;10658;50.920;12.238;2022-07-22T22:45:29;20.30;99.90
21001;DHT22;10658;50.920;12.238;2022-07-22T22:49:32;20.30;99.90
21001;DHT22;10658;50.920;12.238;2022-07-22T22:53:35;20.10;99.90
21001;DHT22;10658;50.920;12.238;2022-07-22T22:57:36;20.00;99.90
21001;DHT22;10658;50.920;12.238;2022-07-22T23:01:37;20.00;99.90
21001;DHT22;10658;50.920;12.238;2022-07-22T23:05:38;19.80;99.90
21001;DHT22;10658;50.920;12.238;2022-07-22T23:09:40;19.80;99.90
21001;DHT22;10658;50.920;12.238;2022-07-22T23:13:41;19.80;99.90
21001;DHT22;10658;50.920;12.238;2022-07-22T23:17:42;19.90;99.90
21001;DHT22;10658;50.920;12.238;2022-07-22T23:21:44;19.90;99.90
21001;DHT22;10658;50.920;12.238;2022-07-22T23:25:45;19.90;99.90
21001;DHT22;10658;50.920;12.238;2022-07-22T23:29:46;19.90;99.90
21001;DHT22;10658;50.920;12.238;2022-07-22T23:33:47;19.90;99.90
21001;DHT22;10658;50.920;12.238;2022-07-22T23:37:48;19.70;99.90
21001;DHT22;10658;50.920;12.238;2022-07-22T23:41:49;19.60;99.90
21001;DHT22;10658;50.920;12.238;2022-07-22T23:45:50;19.60;99.90
21001;DHT22;10658;50.920;12.238;2022-07-22T23:49:53;19.70;99.90
21001;DHT22;10658;50.920;12.238;2022-07-22T23:53:54;19.60;99.90
21001;DHT22;10658;50.920;12.238;2022-07-22T23:57:56;19.60;99.90
